Terminal Aerodrome Forecast
Issued by NWS Rapid City, SD

Home | Current Version | Previous Version | Graphics & Text | Print | Product List | Glossary On
Versions: 1 2 3 4 5 6 7 8 9 10 11 12 13 14 15 16 17 18 19 20
000
FTUS43 KUNR 160500
TAFRAP
TAF
KRAP 160520Z 1606/1706 34023G33KT P6SM -SHRA BKN050
     FM160900 34026G36KT P6SM -SHRASN BKN030
     FM161200 35028G40KT P6SM -SHRASN BKN025
     FM161600 35025G35KT P6SM -SHRASN SCT035=

USA.gov is the U.S. government's official web portal to all federal, state and local government web resources and services.